Zachary, Louisiana
Current Conditions -  °F | °C
As of 3:53 AM on Monday 20 Oct 2014 (Local Time) from KBTR Reporting Station
Clear Clear  
Wind Chill: 54°   Ceiling: Unl
Heat Index: 54°   Visibility: 10mi
Dew Point: 51°   Wind: 5mph
Humidity: 90%   Direction: 40°NE
Pressure: 30.05"   Gusts: NA
Location:  30.65°N, 91.16°W
Report Text: KBTR 200853Z AUTO 04004KT 10SM CLR 12/11 A3005 RMK AO2 SLP174 T01220106 58005 TSNO $
Loading
Personal Weather Stations






























Interactive Weather Map New forecast layout! Learn more

10-Day Weather Forecast

Advertisements
Track Severe Weather on mobile